sensor_id;sensor_type;location;lat;lon;timestamp;P1;durP1;ratioP1;P2;durP2;ratioP2
24090;SDS011;12272;52.426;17.100;2022-12-24T00:02:58;36.73;;;19.73;;
24090;SDS011;12272;52.426;17.100;2022-12-24T00:08:01;36.27;;;20.17;;
24090;SDS011;12272;52.426;17.100;2022-12-24T00:13:03;40.53;;;21.17;;
24090;SDS011;12272;52.426;17.100;2022-12-24T00:18:06;45.47;;;20.80;;
24090;SDS011;12272;52.426;17.100;2022-12-24T00:23:08;30.53;;;17.37;;
24090;SDS011;12272;52.426;17.100;2022-12-24T00:28:11;31.73;;;17.87;;
24090;SDS011;12272;52.426;17.100;2022-12-24T00:33:14;37.87;;;20.60;;
24090;SDS011;12272;52.426;17.100;2022-12-24T00:38:25;39.93;;;19.80;;
24090;SDS011;12272;52.426;17.100;2022-12-24T00:43:28;29.00;;;17.80;;
24090;SDS011;12272;52.426;17.100;2022-12-24T00:48:31;26.37;;;15.37;;
24090;SDS011;12272;52.426;17.100;2022-12-24T00:53:33;37.33;;;21.07;;
24090;SDS011;12272;52.426;17.100;2022-12-24T00:58:36;29.70;;;17.20;;
24090;SDS011;12272;52.426;17.100;2022-12-24T01:03:39;41.27;;;23.63;;
24090;SDS011;12272;52.426;17.100;2022-12-24T01:08:41;32.97;;;19.00;;
24090;SDS011;12272;52.426;17.100;2022-12-24T01:13:44;29.80;;;17.57;;
24090;SDS011;12272;52.426;17.100;2022-12-24T01:18:47;33.20;;;20.30;;
24090;SDS011;12272;52.426;17.100;2022-12-24T01:23:51;32.57;;;16.93;;
24090;SDS011;12272;52.426;17.100;2022-12-24T01:28:53;32.60;;;19.50;;
24090;SDS011;12272;52.426;17.100;2022-12-24T01:33:58;21.60;;;14.60;;
24090;SDS011;12272;52.426;17.100;2022-12-24T01:39:00;25.10;;;16.03;;
24090;SDS011;12272;52.426;17.100;2022-12-24T01:49:23;23.00;;;13.80;;
24090;SDS011;12272;52.426;17.100;2022-12-24T01:54:33;24.17;;;14.33;;
24090;SDS011;12272;52.426;17.100;2022-12-24T02:10:32;17.80;;;12.47;;
24090;SDS011;12272;52.426;17.100;2022-12-24T02:15:40;24.93;;;15.97;;
24090;SDS011;12272;52.426;17.100;2022-12-24T02:21:11;23.67;;;14.40;;
24090;SDS011;12272;52.426;17.100;2022-12-24T02:32:09;15.07;;;10.17;;
24090;SDS011;12272;52.426;17.100;2022-12-24T02:37:32;24.37;;;15.57;;
24090;SDS011;12272;52.426;17.100;2022-12-24T02:42:40;22.63;;;13.97;;
24090;SDS011;12272;52.426;17.100;2022-12-24T02:47:45;19.87;;;11.47;;
24090;SDS011;12272;52.426;17.100;2022-12-24T02:52:49;21.77;;;13.10;;
24090;SDS011;12272;52.426;17.100;2022-12-24T03:13:51;15.33;;;10.73;;
24090;SDS011;12272;52.426;17.100;2022-12-24T03:18:55;22.03;;;12.77;;
24090;SDS011;12272;52.426;17.100;2022-12-24T03:24:01;21.27;;;14.10;;
24090;SDS011;12272;52.426;17.100;2022-12-24T03:29:05;35.87;;;18.40;;
24090;SDS011;12272;52.426;17.100;2022-12-24T03:34:08;26.30;;;16.73;;
24090;SDS011;12272;52.426;17.100;2022-12-24T03:39:12;31.30;;;18.30;;
24090;SDS011;12272;52.426;17.100;2022-12-24T03:44:15;24.27;;;14.00;;
24090;SDS011;12272;52.426;17.100;2022-12-24T03:49:17;18.07;;;11.47;;
24090;SDS011;12272;52.426;17.100;2022-12-24T03:54:20;33.30;;;18.27;;
24090;SDS011;12272;52.426;17.100;2022-12-24T03:59:23;17.27;;;11.33;;
24090;SDS011;12272;52.426;17.100;2022-12-24T04:04:25;35.70;;;19.10;;
24090;SDS011;12272;52.426;17.100;2022-12-24T04:09:28;28.43;;;16.83;;
24090;SDS011;12272;52.426;17.100;2022-12-24T04:14:30;23.27;;;14.70;;
24090;SDS011;12272;52.426;17.100;2022-12-24T04:19:33;29.73;;;17.37;;
24090;SDS011;12272;52.426;17.100;2022-12-24T04:24:35;20.87;;;13.17;;
24090;SDS011;12272;52.426;17.100;2022-12-24T04:29:38;25.73;;;16.20;;
24090;SDS011;12272;52.426;17.100;2022-12-24T04:34:41;24.87;;;15.40;;
24090;SDS011;12272;52.426;17.100;2022-12-24T04:39:43;21.10;;;13.83;;
24090;SDS011;12272;52.426;17.100;2022-12-24T04:44:46;25.93;;;15.67;;
24090;SDS011;12272;52.426;17.100;2022-12-24T04:49:48;27.93;;;16.67;;
24090;SDS011;12272;52.426;17.100;2022-12-24T04:54:51;36.30;;;18.93;;
24090;SDS011;12272;52.426;17.100;2022-12-24T04:59:54;28.43;;;17.73;;
24090;SDS011;12272;52.426;17.100;2022-12-24T05:04:56;30.93;;;17.37;;
24090;SDS011;12272;52.426;17.100;2022-12-24T05:09:59;22.00;;;13.53;;
24090;SDS011;12272;52.426;17.100;2022-12-24T05:15:01;22.40;;;13.73;;
24090;SDS011;12272;52.426;17.100;2022-12-24T05:20:05;19.07;;;10.80;;
24090;SDS011;12272;52.426;17.100;2022-12-24T05:25:08;19.73;;;12.23;;
24090;SDS011;12272;52.426;17.100;2022-12-24T05:30:29;18.03;;;11.97;;
24090;SDS011;12272;52.426;17.100;2022-12-24T05:35:32;22.93;;;12.83;;
24090;SDS011;12272;52.426;17.100;2022-12-24T05:40:34;18.63;;;11.57;;
24090;SDS011;12272;52.426;17.100;2022-12-24T05:45:37;18.00;;;10.57;;
24090;SDS011;12272;52.426;17.100;2022-12-24T05:50:39;21.50;;;12.70;;
24090;SDS011;12272;52.426;17.100;2022-12-24T05:55:43;24.53;;;14.43;;
24090;SDS011;12272;52.426;17.100;2022-12-24T06:00:46;22.27;;;12.50;;
24090;SDS011;12272;52.426;17.100;2022-12-24T06:05:48;22.93;;;13.07;;
24090;SDS011;12272;52.426;17.100;2022-12-24T06:11:00;19.23;;;12.00;;
24090;SDS011;12272;52.426;17.100;2022-12-24T06:16:07;20.07;;;12.20;;
24090;SDS011;12272;52.426;17.100;2022-12-24T06:21:13;29.00;;;16.37;;
24090;SDS011;12272;52.426;17.100;2022-12-24T06:26:18;20.03;;;12.80;;
24090;SDS011;12272;52.426;17.100;2022-12-24T06:31:22;24.00;;;13.10;;
24090;SDS011;12272;52.426;17.100;2022-12-24T06:36:25;16.97;;;9.33;;
24090;SDS011;12272;52.426;17.100;2022-12-24T06:41:27;16.97;;;11.63;;
24090;SDS011;12272;52.426;17.100;2022-12-24T06:46:30;19.10;;;13.47;;
24090;SDS011;12272;52.426;17.100;2022-12-24T06:51:32;15.53;;;9.33;;
24090;SDS011;12272;52.426;17.100;2022-12-24T06:56:35;28.10;;;16.27;;
24090;SDS011;12272;52.426;17.100;2022-12-24T07:01:37;26.37;;;13.03;;
24090;SDS011;12272;52.426;17.100;2022-12-24T07:06:40;23.47;;;14.83;;
24090;SDS011;12272;52.426;17.100;2022-12-24T07:11:42;24.57;;;15.20;;
24090;SDS011;12272;52.426;17.100;2022-12-24T07:16:45;29.77;;;16.83;;
24090;SDS011;12272;52.426;17.100;2022-12-24T07:21:48;21.97;;;13.47;;
24090;SDS011;12272;52.426;17.100;2022-12-24T07:26:51;19.57;;;12.90;;
24090;SDS011;12272;52.426;17.100;2022-12-24T07:31:53;26.53;;;17.00;;
24090;SDS011;12272;52.426;17.100;2022-12-24T07:36:56;25.83;;;16.47;;
24090;SDS011;12272;52.426;17.100;2022-12-24T07:41:59;28.40;;;17.63;;
24090;SDS011;12272;52.426;17.100;2022-12-24T07:47:02;19.07;;;11.70;;
24090;SDS011;12272;52.426;17.100;2022-12-24T07:52:04;26.30;;;15.97;;
24090;SDS011;12272;52.426;17.100;2022-12-24T07:57:07;26.87;;;18.70;;
24090;SDS011;12272;52.426;17.100;2022-12-24T08:02:10;25.90;;;15.60;;
24090;SDS011;12272;52.426;17.100;2022-12-24T08:07:19;28.97;;;18.23;;
24090;SDS011;12272;52.426;17.100;2022-12-24T08:12:21;24.57;;;15.03;;
24090;SDS011;12272;52.426;17.100;2022-12-24T08:17:25;26.97;;;16.00;;
24090;SDS011;12272;52.426;17.100;2022-12-24T08:22:33;31.10;;;18.87;;
24090;SDS011;12272;52.426;17.100;2022-12-24T08:27:36;26.43;;;15.67;;
24090;SDS011;12272;52.426;17.100;2022-12-24T08:32:38;22.60;;;13.13;;
24090;SDS011;12272;52.426;17.100;2022-12-24T08:37:41;30.83;;;16.47;;
24090;SDS011;12272;52.426;17.100;2022-12-24T08:42:43;27.20;;;16.47;;
24090;SDS011;12272;52.426;17.100;2022-12-24T08:47:46;27.20;;;15.87;;
24090;SDS011;12272;52.426;17.100;2022-12-24T08:52:49;20.30;;;13.47;;
24090;SDS011;12272;52.426;17.100;2022-12-24T08:57:52;26.47;;;15.83;;
24090;SDS011;12272;52.426;17.100;2022-12-24T09:02:55;22.03;;;13.53;;
24090;SDS011;12272;52.426;17.100;2022-12-24T09:07:58;21.27;;;12.10;;
24090;SDS011;12272;52.426;17.100;2022-12-24T09:13:00;24.13;;;14.07;;
24090;SDS011;12272;52.426;17.100;2022-12-24T09:18:03;22.77;;;13.70;;
24090;SDS011;12272;52.426;17.100;2022-12-24T09:23:06;19.70;;;12.00;;
24090;SDS011;12272;52.426;17.100;2022-12-24T09:28:09;21.13;;;13.27;;
24090;SDS011;12272;52.426;17.100;2022-12-24T09:33:11;22.10;;;13.57;;
24090;SDS011;12272;52.426;17.100;2022-12-24T09:38:14;13.20;;;9.43;;
24090;SDS011;12272;52.426;17.100;2022-12-24T09:43:23;29.30;;;17.00;;
24090;SDS011;12272;52.426;17.100;2022-12-24T09:48:28;26.30;;;15.07;;
24090;SDS011;12272;52.426;17.100;2022-12-24T09:58:40;24.50;;;14.47;;
24090;SDS011;12272;52.426;17.100;2022-12-24T10:03:46;18.93;;;11.33;;
24090;SDS011;12272;52.426;17.100;2022-12-24T10:19:20;29.47;;;18.67;;
24090;SDS011;12272;52.426;17.100;2022-12-24T10:24:40;27.87;;;16.27;;
24090;SDS011;12272;52.426;17.100;2022-12-24T10:29:53;31.30;;;17.73;;
24090;SDS011;12272;52.426;17.100;2022-12-24T10:40:22;26.43;;;18.03;;
24090;SDS011;12272;52.426;17.100;2022-12-24T10:45:33;22.70;;;13.20;;
24090;SDS011;12272;52.426;17.100;2022-12-24T10:50:42;36.70;;;21.10;;
24090;SDS011;12272;52.426;17.100;2022-12-24T10:56:06;30.80;;;18.67;;
24090;SDS011;12272;52.426;17.100;2022-12-24T11:01:11;15.37;;;11.20;;
24090;SDS011;12272;52.426;17.100;2022-12-24T11:06:15;29.23;;;17.67;;
24090;SDS011;12272;52.426;17.100;2022-12-24T11:11:23;31.40;;;19.80;;
24090;SDS011;12272;52.426;17.100;2022-12-24T11:16:29;34.03;;;20.90;;
24090;SDS011;12272;52.426;17.100;2022-12-24T11:21:35;26.33;;;16.03;;
24090;SDS011;12272;52.426;17.100;2022-12-24T11:26:41;27.60;;;18.43;;
24090;SDS011;12272;52.426;17.100;2022-12-24T11:31:45;25.20;;;17.37;;
24090;SDS011;12272;52.426;17.100;2022-12-24T11:36:49;26.97;;;18.03;;
24090;SDS011;12272;52.426;17.100;2022-12-24T11:41:54;30.80;;;18.17;;
24090;SDS011;12272;52.426;17.100;2022-12-24T11:46:56;24.47;;;17.50;;
24090;SDS011;12272;52.426;17.100;2022-12-24T11:52:01;29.10;;;18.30;;
24090;SDS011;12272;52.426;17.100;2022-12-24T11:57:11;26.37;;;16.10;;
24090;SDS011;12272;52.426;17.100;2022-12-24T12:07:29;40.57;;;21.07;;
24090;SDS011;12272;52.426;17.100;2022-12-24T12:12:56;26.47;;;17.17;;
24090;SDS011;12272;52.426;17.100;2022-12-24T12:23:20;30.20;;;19.00;;
24090;SDS011;12272;52.426;17.100;2022-12-24T12:28:27;23.17;;;16.87;;
24090;SDS011;12272;52.426;17.100;2022-12-24T12:33:43;32.00;;;19.17;;
24090;SDS011;12272;52.426;17.100;2022-12-24T12:38:56;26.80;;;18.93;;
24090;SDS011;12272;52.426;17.100;2022-12-24T12:54:31;29.23;;;19.00;;
24090;SDS011;12272;52.426;17.100;2022-12-24T12:59:48;32.23;;;20.67;;
24090;SDS011;12272;52.426;17.100;2022-12-24T13:16:22;33.70;;;21.30;;
24090;SDS011;12272;52.426;17.100;2022-12-24T13:21:41;36.20;;;21.37;;
24090;SDS011;12272;52.426;17.100;2022-12-24T13:37:35;42.23;;;26.50;;
24090;SDS011;12272;52.426;17.100;2022-12-24T13:53:21;44.20;;;30.37;;
24090;SDS011;12272;52.426;17.100;2022-12-24T13:58:36;53.20;;;37.23;;
24090;SDS011;12272;52.426;17.100;2022-12-24T14:03:52;45.47;;;31.70;;
24090;SDS011;12272;52.426;17.100;2022-12-24T14:09:09;48.73;;;36.23;;
24090;SDS011;12272;52.426;17.100;2022-12-24T14:14:34;49.60;;;33.83;;
24090;SDS011;12272;52.426;17.100;2022-12-24T14:19:42;43.00;;;27.93;;
24090;SDS011;12272;52.426;17.100;2022-12-24T14:24:47;38.37;;;24.73;;
24090;SDS011;12272;52.426;17.100;2022-12-24T14:30:21;43.43;;;28.77;;
24090;SDS011;12272;52.426;17.100;2022-12-24T14:35:35;41.73;;;26.03;;
24090;SDS011;12272;52.426;17.100;2022-12-24T14:40:49;53.00;;;34.83;;
24090;SDS011;12272;52.426;17.100;2022-12-24T14:51:35;46.43;;;30.77;;
24090;SDS011;12272;52.426;17.100;2022-12-24T15:24:44;41.53;;;25.17;;
24090;SDS011;12272;52.426;17.100;2022-12-24T15:29:49;47.70;;;29.33;;
24090;SDS011;12272;52.426;17.100;2022-12-24T15:34:54;46.33;;;27.77;;
24090;SDS011;12272;52.426;17.100;2022-12-24T15:39:58;41.70;;;25.57;;
24090;SDS011;12272;52.426;17.100;2022-12-24T15:50:20;45.40;;;27.77;;
24090;SDS011;12272;52.426;17.100;2022-12-24T15:55:38;50.23;;;27.73;;
24090;SDS011;12272;52.426;17.100;2022-12-24T16:00:58;40.57;;;24.67;;
24090;SDS011;12272;52.426;17.100;2022-12-24T16:06:06;45.10;;;26.00;;
24090;SDS011;12272;52.426;17.100;2022-12-24T16:11:19;41.60;;;25.97;;
24090;SDS011;12272;52.426;17.100;2022-12-24T16:21:49;49.93;;;29.73;;
24090;SDS011;12272;52.426;17.100;2022-12-24T16:26:55;50.07;;;30.73;;
24090;SDS011;12272;52.426;17.100;2022-12-24T16:31:58;66.33;;;38.57;;
24090;SDS011;12272;52.426;17.100;2022-12-24T16:37:01;48.20;;;26.70;;
24090;SDS011;12272;52.426;17.100;2022-12-24T16:42:04;38.20;;;25.40;;
24090;SDS011;12272;52.426;17.100;2022-12-24T16:47:26;46.17;;;27.83;;
24090;SDS011;12272;52.426;17.100;2022-12-24T16:52:38;44.93;;;27.27;;
24090;SDS011;12272;52.426;17.100;2022-12-24T16:57:41;42.47;;;26.63;;
24090;SDS011;12272;52.426;17.100;2022-12-24T17:02:45;49.10;;;29.63;;
24090;SDS011;12272;52.426;17.100;2022-12-24T17:07:49;51.53;;;32.20;;
24090;SDS011;12272;52.426;17.100;2022-12-24T17:12:52;53.87;;;32.40;;
24090;SDS011;12272;52.426;17.100;2022-12-24T17:17:54;52.40;;;34.17;;
24090;SDS011;12272;52.426;17.100;2022-12-24T17:22:57;39.70;;;24.23;;
24090;SDS011;12272;52.426;17.100;2022-12-24T17:28:00;48.93;;;31.40;;
24090;SDS011;12272;52.426;17.100;2022-12-24T17:33:02;34.27;;;21.37;;
24090;SDS011;12272;52.426;17.100;2022-12-24T17:38:11;54.43;;;31.50;;
24090;SDS011;12272;52.426;17.100;2022-12-24T17:43:14;47.07;;;29.83;;
24090;SDS011;12272;52.426;17.100;2022-12-24T17:48:16;46.70;;;30.17;;
24090;SDS011;12272;52.426;17.100;2022-12-24T17:53:19;54.53;;;32.20;;
24090;SDS011;12272;52.426;17.100;2022-12-24T17:58:24;61.97;;;35.83;;
24090;SDS011;12272;52.426;17.100;2022-12-24T18:03:27;66.63;;;41.40;;
24090;SDS011;12272;52.426;17.100;2022-12-24T18:08:30;69.37;;;39.87;;
24090;SDS011;12272;52.426;17.100;2022-12-24T18:13:32;57.10;;;35.10;;
24090;SDS011;12272;52.426;17.100;2022-12-24T18:18:35;57.07;;;34.47;;
24090;SDS011;12272;52.426;17.100;2022-12-24T18:23:40;58.13;;;35.10;;
24090;SDS011;12272;52.426;17.100;2022-12-24T18:28:44;54.17;;;31.90;;
24090;SDS011;12272;52.426;17.100;2022-12-24T18:33:50;59.63;;;36.57;;
24090;SDS011;12272;52.426;17.100;2022-12-24T18:38:54;65.13;;;36.23;;
24090;SDS011;12272;52.426;17.100;2022-12-24T18:43:57;62.83;;;36.97;;
24090;SDS011;12272;52.426;17.100;2022-12-24T18:49:00;58.07;;;35.13;;
24090;SDS011;12272;52.426;17.100;2022-12-24T18:54:04;62.53;;;36.50;;
24090;SDS011;12272;52.426;17.100;2022-12-24T18:59:08;62.00;;;35.90;;
24090;SDS011;12272;52.426;17.100;2022-12-24T19:04:10;59.40;;;33.13;;
24090;SDS011;12272;52.426;17.100;2022-12-24T19:09:15;75.27;;;40.80;;
24090;SDS011;12272;52.426;17.100;2022-12-24T19:14:18;59.40;;;34.80;;
24090;SDS011;12272;52.426;17.100;2022-12-24T19:19:21;70.73;;;39.33;;
24090;SDS011;12272;52.426;17.100;2022-12-24T19:24:25;59.50;;;32.93;;
24090;SDS011;12272;52.426;17.100;2022-12-24T19:29:29;64.77;;;36.03;;
24090;SDS011;12272;52.426;17.100;2022-12-24T19:34:32;60.20;;;35.40;;
24090;SDS011;12272;52.426;17.100;2022-12-24T19:39:34;65.60;;;35.33;;
24090;SDS011;12272;52.426;17.100;2022-12-24T19:44:37;61.27;;;34.97;;
24090;SDS011;12272;52.426;17.100;2022-12-24T19:49:40;66.00;;;37.27;;
24090;SDS011;12272;52.426;17.100;2022-12-24T19:54:42;62.30;;;35.97;;
24090;SDS011;12272;52.426;17.100;2022-12-24T19:59:45;58.43;;;33.77;;
24090;SDS011;12272;52.426;17.100;2022-12-24T20:04:48;44.30;;;26.57;;
24090;SDS011;12272;52.426;17.100;2022-12-24T20:09:51;61.67;;;34.13;;
24090;SDS011;12272;52.426;17.100;2022-12-24T20:14:54;63.77;;;35.07;;
24090;SDS011;12272;52.426;17.100;2022-12-24T20:19:57;62.43;;;34.90;;
24090;SDS011;12272;52.426;17.100;2022-12-24T20:25:00;66.60;;;37.20;;
24090;SDS011;12272;52.426;17.100;2022-12-24T20:30:03;71.70;;;37.10;;
24090;SDS011;12272;52.426;17.100;2022-12-24T20:35:06;79.53;;;39.27;;
24090;SDS011;12272;52.426;17.100;2022-12-24T20:40:09;68.27;;;36.80;;
24090;SDS011;12272;52.426;17.100;2022-12-24T20:45:12;67.97;;;36.77;;
24090;SDS011;12272;52.426;17.100;2022-12-24T20:50:16;66.53;;;34.33;;
24090;SDS011;12272;52.426;17.100;2022-12-24T20:55:19;65.67;;;37.97;;
24090;SDS011;12272;52.426;17.100;2022-12-24T21:00:22;72.87;;;39.97;;
24090;SDS011;12272;52.426;17.100;2022-12-24T21:05:26;72.50;;;39.50;;
24090;SDS011;12272;52.426;17.100;2022-12-24T21:10:28;73.13;;;38.90;;
24090;SDS011;12272;52.426;17.100;2022-12-24T21:15:36;76.60;;;40.50;;
24090;SDS011;12272;52.426;17.100;2022-12-24T21:20:40;82.20;;;42.43;;
24090;SDS011;12272;52.426;17.100;2022-12-24T21:25:44;77.60;;;40.83;;
24090;SDS011;12272;52.426;17.100;2022-12-24T21:30:46;89.00;;;42.47;;
24090;SDS011;12272;52.426;17.100;2022-12-24T21:35:49;86.60;;;43.03;;
24090;SDS011;12272;52.426;17.100;2022-12-24T21:42:02;76.53;;;42.10;;
24090;SDS011;12272;52.426;17.100;2022-12-24T21:47:07;85.80;;;42.27;;
24090;SDS011;12272;52.426;17.100;2022-12-24T21:52:14;83.00;;;44.13;;
24090;SDS011;12272;52.426;17.100;2022-12-24T21:57:17;79.77;;;40.63;;
24090;SDS011;12272;52.426;17.100;2022-12-24T22:02:38;62.83;;;36.23;;
24090;SDS011;12272;52.426;17.100;2022-12-24T22:07:41;102.77;;;50.50;;
24090;SDS011;12272;52.426;17.100;2022-12-24T22:13:02;89.43;;;46.10;;
24090;SDS011;12272;52.426;17.100;2022-12-24T22:18:08;88.97;;;49.10;;
24090;SDS011;12272;52.426;17.100;2022-12-24T22:23:11;95.87;;;51.37;;
24090;SDS011;12272;52.426;17.100;2022-12-24T22:28:14;116.07;;;56.40;;
24090;SDS011;12272;52.426;17.100;2022-12-24T22:33:17;114.83;;;58.10;;
24090;SDS011;12272;52.426;17.100;2022-12-24T22:38:19;98.63;;;52.20;;
24090;SDS011;12272;52.426;17.100;2022-12-24T22:43:22;104.77;;;52.37;;
24090;SDS011;12272;52.426;17.100;2022-12-24T22:48:25;104.97;;;48.43;;
24090;SDS011;12272;52.426;17.100;2022-12-24T22:53:28;104.57;;;53.60;;
24090;SDS011;12272;52.426;17.100;2022-12-24T22:58:30;90.53;;;45.87;;
24090;SDS011;12272;52.426;17.100;2022-12-24T23:03:33;98.77;;;47.90;;
24090;SDS011;12272;52.426;17.100;2022-12-24T23:08:36;82.60;;;40.23;;
24090;SDS011;12272;52.426;17.100;2022-12-24T23:13:39;90.00;;;47.60;;
24090;SDS011;12272;52.426;17.100;2022-12-24T23:19:03;85.33;;;42.43;;
24090;SDS011;12272;52.426;17.100;2022-12-24T23:24:08;76.87;;;38.50;;
24090;SDS011;12272;52.426;17.100;2022-12-24T23:29:12;71.10;;;40.17;;
24090;SDS011;12272;52.426;17.100;2022-12-24T23:34:14;78.53;;;40.40;;
24090;SDS011;12272;52.426;17.100;2022-12-24T23:39:17;91.30;;;44.20;;
24090;SDS011;12272;52.426;17.100;2022-12-24T23:44:20;86.37;;;42.10;;
24090;SDS011;12272;52.426;17.100;2022-12-24T23:49:31;87.60;;;41.03;;
24090;SDS011;12272;52.426;17.100;2022-12-24T23:54:33;86.13;;;45.00;;
24090;SDS011;12272;52.426;17.100;2022-12-24T23:59:36;57.63;;;29.27;;
